sensor_id;sensor_type;location;lat;lon;timestamp;P1;durP1;ratioP1;P2;durP2;ratioP2
40707;SDS011;26392;42.696;23.350;2023-03-08T00:00:31;28.30;;;12.25;;
40707;SDS011;26392;42.696;23.350;2023-03-08T00:02:57;35.92;;;14.05;;
40707;SDS011;26392;42.696;23.350;2023-03-08T00:05:22;28.65;;;12.23;;
40707;SDS011;26392;42.696;23.350;2023-03-08T00:07:48;33.45;;;15.13;;
40707;SDS011;26392;42.696;23.350;2023-03-08T00:10:16;31.40;;;12.48;;
40707;SDS011;26392;42.696;23.350;2023-03-08T00:12:41;38.08;;;13.35;;
40707;SDS011;26392;42.696;23.350;2023-03-08T00:15:07;36.10;;;13.15;;
40707;SDS011;26392;42.696;23.350;2023-03-08T00:17:34;30.95;;;13.63;;
40707;SDS011;26392;42.696;23.350;2023-03-08T00:20:01;29.27;;;11.98;;
40707;SDS011;26392;42.696;23.350;2023-03-08T00:22:29;25.88;;;11.93;;
40707;SDS011;26392;42.696;23.350;2023-03-08T00:24:58;26.98;;;11.63;;
40707;SDS011;26392;42.696;23.350;2023-03-08T00:27:24;21.83;;;9.60;;
40707;SDS011;26392;42.696;23.350;2023-03-08T00:29:49;22.10;;;10.02;;
40707;SDS011;26392;42.696;23.350;2023-03-08T00:32:14;23.10;;;8.55;;
40707;SDS011;26392;42.696;23.350;2023-03-08T00:34:40;14.95;;;7.63;;
40707;SDS011;26392;42.696;23.350;2023-03-08T00:37:10;15.30;;;6.82;;
40707;SDS011;26392;42.696;23.350;2023-03-08T00:39:35;16.73;;;7.20;;
40707;SDS011;26392;42.696;23.350;2023-03-08T00:42:01;13.50;;;6.55;;
40707;SDS011;26392;42.696;23.350;2023-03-08T00:44:26;13.48;;;6.30;;
40707;SDS011;26392;42.696;23.350;2023-03-08T00:46:51;14.05;;;6.55;;
40707;SDS011;26392;42.696;23.350;2023-03-08T00:49:17;15.32;;;6.78;;
40707;SDS011;26392;42.696;23.350;2023-03-08T00:51:42;11.13;;;5.75;;
40707;SDS011;26392;42.696;23.350;2023-03-08T00:54:07;17.95;;;6.43;;
40707;SDS011;26392;42.696;23.350;2023-03-08T00:56:33;12.05;;;6.47;;
40707;SDS011;26392;42.696;23.350;2023-03-08T00:58:58;15.18;;;6.45;;
40707;SDS011;26392;42.696;23.350;2023-03-08T01:01:24;16.50;;;7.57;;
40707;SDS011;26392;42.696;23.350;2023-03-08T01:03:49;15.23;;;7.20;;
40707;SDS011;26392;42.696;23.350;2023-03-08T01:06:14;17.88;;;8.23;;
40707;SDS011;26392;42.696;23.350;2023-03-08T01:08:40;17.00;;;8.13;;
40707;SDS011;26392;42.696;23.350;2023-03-08T01:11:06;18.00;;;7.38;;
40707;SDS011;26392;42.696;23.350;2023-03-08T01:13:38;19.95;;;8.35;;
40707;SDS011;26392;42.696;23.350;2023-03-08T01:16:03;18.92;;;8.10;;
40707;SDS011;26392;42.696;23.350;2023-03-08T01:18:29;19.10;;;8.45;;
40707;SDS011;26392;42.696;23.350;2023-03-08T01:20:58;16.58;;;7.88;;
40707;SDS011;26392;42.696;23.350;2023-03-08T01:23:24;19.85;;;9.88;;
40707;SDS011;26392;42.696;23.350;2023-03-08T01:26:00;21.95;;;9.30;;
40707;SDS011;26392;42.696;23.350;2023-03-08T01:28:27;17.60;;;9.75;;
40707;SDS011;26392;42.696;23.350;2023-03-08T01:30:53;20.77;;;9.55;;
40707;SDS011;26392;42.696;23.350;2023-03-08T01:33:18;24.65;;;10.43;;
40707;SDS011;26392;42.696;23.350;2023-03-08T01:35:45;22.98;;;9.90;;
40707;SDS011;26392;42.696;23.350;2023-03-08T01:38:11;24.48;;;10.90;;
40707;SDS011;26392;42.696;23.350;2023-03-08T01:40:36;24.30;;;9.82;;
40707;SDS011;26392;42.696;23.350;2023-03-08T01:51:55;21.45;;;10.05;;
40707;SDS011;26392;42.696;23.350;2023-03-08T01:54:37;27.48;;;10.35;;
40707;SDS011;26392;42.696;23.350;2023-03-08T01:57:12;21.23;;;11.77;;
40707;SDS011;26392;42.696;23.350;2023-03-08T01:59:42;27.80;;;12.00;;
40707;SDS011;26392;42.696;23.350;2023-03-08T02:02:08;24.63;;;11.55;;
40707;SDS011;26392;42.696;23.350;2023-03-08T02:04:34;29.23;;;11.60;;
40707;SDS011;26392;42.696;23.350;2023-03-08T02:07:00;25.75;;;12.02;;
40707;SDS011;26392;42.696;23.350;2023-03-08T02:09:25;26.90;;;11.70;;
40707;SDS011;26392;42.696;23.350;2023-03-08T02:11:51;27.27;;;12.15;;
40707;SDS011;26392;42.696;23.350;2023-03-08T02:14:19;21.45;;;10.75;;
40707;SDS011;26392;42.696;23.350;2023-03-08T02:16:44;24.02;;;11.30;;
40707;SDS011;26392;42.696;23.350;2023-03-08T02:19:11;25.95;;;11.85;;
40707;SDS011;26392;42.696;23.350;2023-03-08T02:21:44;23.70;;;12.35;;
40707;SDS011;26392;42.696;23.350;2023-03-08T02:24:16;23.80;;;10.50;;
40707;SDS011;26392;42.696;23.350;2023-03-08T02:26:46;23.35;;;10.75;;
40707;SDS011;26392;42.696;23.350;2023-03-08T02:29:12;25.63;;;10.77;;
40707;SDS011;26392;42.696;23.350;2023-03-08T02:31:37;21.55;;;11.00;;
40707;SDS011;26392;42.696;23.350;2023-03-08T02:34:03;30.08;;;13.25;;
40707;SDS011;26392;42.696;23.350;2023-03-08T02:36:28;29.95;;;13.38;;
40707;SDS011;26392;42.696;23.350;2023-03-08T02:38:53;32.20;;;13.02;;
40707;SDS011;26392;42.696;23.350;2023-03-08T02:41:19;31.02;;;13.75;;
40707;SDS011;26392;42.696;23.350;2023-03-08T02:43:44;29.20;;;14.02;;
40707;SDS011;26392;42.696;23.350;2023-03-08T02:46:10;29.98;;;12.57;;
40707;SDS011;26392;42.696;23.350;2023-03-08T02:48:37;25.60;;;12.27;;
40707;SDS011;26392;42.696;23.350;2023-03-08T02:51:02;28.38;;;12.65;;
40707;SDS011;26392;42.696;23.350;2023-03-08T02:53:28;24.08;;;12.13;;
40707;SDS011;26392;42.696;23.350;2023-03-08T02:55:53;27.08;;;12.70;;
40707;SDS011;26392;42.696;23.350;2023-03-08T02:58:19;32.58;;;13.52;;
40707;SDS011;26392;42.696;23.350;2023-03-08T03:00:44;29.35;;;12.20;;
40707;SDS011;26392;42.696;23.350;2023-03-08T03:03:10;24.77;;;12.18;;
40707;SDS011;26392;42.696;23.350;2023-03-08T03:05:39;30.13;;;13.38;;
40707;SDS011;26392;42.696;23.350;2023-03-08T03:08:06;27.55;;;12.05;;
40707;SDS011;26392;42.696;23.350;2023-03-08T03:10:33;27.15;;;12.35;;
40707;SDS011;26392;42.696;23.350;2023-03-08T03:12:59;28.92;;;12.38;;
40707;SDS011;26392;42.696;23.350;2023-03-08T03:15:25;26.50;;;12.88;;
40707;SDS011;26392;42.696;23.350;2023-03-08T03:17:50;26.10;;;11.80;;
40707;SDS011;26392;42.696;23.350;2023-03-08T03:20:16;24.38;;;10.25;;
40707;SDS011;26392;42.696;23.350;2023-03-08T03:22:41;28.88;;;10.98;;
40707;SDS011;26392;42.696;23.350;2023-03-08T03:25:07;26.15;;;10.65;;
40707;SDS011;26392;42.696;23.350;2023-03-08T03:27:32;21.48;;;9.43;;
40707;SDS011;26392;42.696;23.350;2023-03-08T03:29:58;19.38;;;8.90;;
40707;SDS011;26392;42.696;23.350;2023-03-08T03:32:23;24.00;;;10.60;;
40707;SDS011;26392;42.696;23.350;2023-03-08T03:34:49;30.23;;;10.50;;
40707;SDS011;26392;42.696;23.350;2023-03-08T03:37:14;25.85;;;10.55;;
40707;SDS011;26392;42.696;23.350;2023-03-08T03:39:39;22.52;;;10.27;;
40707;SDS011;26392;42.696;23.350;2023-03-08T03:42:05;21.35;;;10.15;;
40707;SDS011;26392;42.696;23.350;2023-03-08T03:44:32;25.38;;;10.35;;
40707;SDS011;26392;42.696;23.350;2023-03-08T03:46:57;28.75;;;11.10;;
40707;SDS011;26392;42.696;23.350;2023-03-08T03:49:23;19.67;;;9.88;;
40707;SDS011;26392;42.696;23.350;2023-03-08T03:51:48;25.30;;;11.30;;
40707;SDS011;26392;42.696;23.350;2023-03-08T03:54:14;25.42;;;10.65;;
40707;SDS011;26392;42.696;23.350;2023-03-08T03:56:39;24.25;;;11.48;;
40707;SDS011;26392;42.696;23.350;2023-03-08T03:59:05;26.08;;;10.95;;
40707;SDS011;26392;42.696;23.350;2023-03-08T04:01:30;28.25;;;11.68;;
40707;SDS011;26392;42.696;23.350;2023-03-08T04:03:56;24.40;;;11.52;;
40707;SDS011;26392;42.696;23.350;2023-03-08T04:06:23;37.85;;;12.52;;
40707;SDS011;26392;42.696;23.350;2023-03-08T04:08:53;26.73;;;13.18;;
40707;SDS011;26392;42.696;23.350;2023-03-08T04:11:20;30.65;;;13.77;;
40707;SDS011;26392;42.696;23.350;2023-03-08T04:13:47;27.27;;;13.05;;
40707;SDS011;26392;42.696;23.350;2023-03-08T04:16:14;27.42;;;13.45;;
40707;SDS011;26392;42.696;23.350;2023-03-08T04:18:41;34.67;;;14.90;;
40707;SDS011;26392;42.696;23.350;2023-03-08T04:21:08;32.03;;;14.05;;
40707;SDS011;26392;42.696;23.350;2023-03-08T04:23:36;37.80;;;14.30;;
40707;SDS011;26392;42.696;23.350;2023-03-08T04:26:02;35.20;;;14.32;;
40707;SDS011;26392;42.696;23.350;2023-03-08T04:28:29;41.80;;;14.77;;
40707;SDS011;26392;42.696;23.350;2023-03-08T04:30:55;31.55;;;13.65;;
40707;SDS011;26392;42.696;23.350;2023-03-08T04:33:21;37.20;;;14.88;;
40707;SDS011;26392;42.696;23.350;2023-03-08T04:35:47;35.47;;;15.02;;
40707;SDS011;26392;42.696;23.350;2023-03-08T04:38:12;35.00;;;15.25;;
40707;SDS011;26392;42.696;23.350;2023-03-08T04:43:38;31.42;;;15.13;;
40707;SDS011;26392;42.696;23.350;2023-03-08T04:46:05;34.75;;;14.27;;
40707;SDS011;26392;42.696;23.350;2023-03-08T04:48:31;33.88;;;14.90;;
40707;SDS011;26392;42.696;23.350;2023-03-08T04:50:58;36.38;;;16.73;;
40707;SDS011;26392;42.696;23.350;2023-03-08T04:53:25;35.38;;;14.55;;
40707;SDS011;26392;42.696;23.350;2023-03-08T04:55:51;37.03;;;15.93;;
40707;SDS011;26392;42.696;23.350;2023-03-08T04:58:17;34.65;;;16.00;;
40707;SDS011;26392;42.696;23.350;2023-03-08T05:00:43;43.42;;;18.25;;
40707;SDS011;26392;42.696;23.350;2023-03-08T05:03:09;44.33;;;18.65;;
40707;SDS011;26392;42.696;23.350;2023-03-08T05:05:35;47.58;;;18.42;;
40707;SDS011;26392;42.696;23.350;2023-03-08T05:08:01;43.63;;;18.67;;
40707;SDS011;26392;42.696;23.350;2023-03-08T05:10:30;31.80;;;15.07;;
40707;SDS011;26392;42.696;23.350;2023-03-08T05:12:56;34.67;;;14.68;;
40707;SDS011;26392;42.696;23.350;2023-03-08T05:15:21;35.08;;;14.18;;
40707;SDS011;26392;42.696;23.350;2023-03-08T05:17:50;29.92;;;12.57;;
40707;SDS011;26392;42.696;23.350;2023-03-08T05:20:15;30.25;;;11.77;;
40707;SDS011;26392;42.696;23.350;2023-03-08T05:22:41;32.15;;;11.55;;
40707;SDS011;26392;42.696;23.350;2023-03-08T05:25:07;26.02;;;10.65;;
40707;SDS011;26392;42.696;23.350;2023-03-08T05:27:33;19.60;;;9.63;;
40707;SDS011;26392;42.696;23.350;2023-03-08T05:29:59;29.13;;;11.35;;
40707;SDS011;26392;42.696;23.350;2023-03-08T05:32:24;29.42;;;11.65;;
40707;SDS011;26392;42.696;23.350;2023-03-08T05:34:53;27.05;;;11.10;;
40707;SDS011;26392;42.696;23.350;2023-03-08T05:37:18;22.35;;;10.13;;
40707;SDS011;26392;42.696;23.350;2023-03-08T05:39:44;24.77;;;11.88;;
40707;SDS011;26392;42.696;23.350;2023-03-08T05:42:11;28.73;;;11.43;;
40707;SDS011;26392;42.696;23.350;2023-03-08T05:44:37;31.25;;;11.52;;
40707;SDS011;26392;42.696;23.350;2023-03-08T05:47:02;30.33;;;13.35;;
40707;SDS011;26392;42.696;23.350;2023-03-08T05:49:28;29.55;;;11.18;;
40707;SDS011;26392;42.696;23.350;2023-03-08T05:51:54;25.02;;;10.25;;
40707;SDS011;26392;42.696;23.350;2023-03-08T05:54:19;27.42;;;11.13;;
40707;SDS011;26392;42.696;23.350;2023-03-08T05:56:45;25.70;;;10.68;;
40707;SDS011;26392;42.696;23.350;2023-03-08T05:59:10;34.25;;;11.02;;
40707;SDS011;26392;42.696;23.350;2023-03-08T06:01:36;23.50;;;11.35;;
40707;SDS011;26392;42.696;23.350;2023-03-08T06:04:01;30.75;;;13.27;;
40707;SDS011;26392;42.696;23.350;2023-03-08T06:06:26;29.73;;;14.38;;
40707;SDS011;26392;42.696;23.350;2023-03-08T06:08:52;31.85;;;13.02;;
40707;SDS011;26392;42.696;23.350;2023-03-08T06:11:18;27.42;;;12.13;;
40707;SDS011;26392;42.696;23.350;2023-03-08T06:13:43;35.78;;;13.52;;
40707;SDS011;26392;42.696;23.350;2023-03-08T06:16:09;37.22;;;15.02;;
40707;SDS011;26392;42.696;23.350;2023-03-08T06:18:35;33.92;;;13.35;;
40707;SDS011;26392;42.696;23.350;2023-03-08T06:23:29;38.30;;;16.20;;
40707;SDS011;26392;42.696;23.350;2023-03-08T06:25:55;45.45;;;19.17;;
40707;SDS011;26392;42.696;23.350;2023-03-08T06:28:21;46.92;;;20.52;;
40707;SDS011;26392;42.696;23.350;2023-03-08T06:30:48;44.67;;;20.63;;
40707;SDS011;26392;42.696;23.350;2023-03-08T06:33:14;42.08;;;19.77;;
40707;SDS011;26392;42.696;23.350;2023-03-08T06:35:41;54.22;;;23.65;;
40707;SDS011;26392;42.696;23.350;2023-03-08T06:38:06;53.28;;;23.65;;
40707;SDS011;26392;42.696;23.350;2023-03-08T06:40:32;52.63;;;22.13;;
40707;SDS011;26392;42.696;23.350;2023-03-08T06:42:57;54.88;;;23.17;;
40707;SDS011;26392;42.696;23.350;2023-03-08T06:45:23;61.70;;;24.50;;
40707;SDS011;26392;42.696;23.350;2023-03-08T06:47:48;65.18;;;26.98;;
40707;SDS011;26392;42.696;23.350;2023-03-08T06:50:13;69.15;;;26.45;;
40707;SDS011;26392;42.696;23.350;2023-03-08T06:52:39;63.50;;;26.25;;
40707;SDS011;26392;42.696;23.350;2023-03-08T06:55:04;52.38;;;23.67;;
40707;SDS011;26392;42.696;23.350;2023-03-08T06:57:31;49.22;;;23.48;;
40707;SDS011;26392;42.696;23.350;2023-03-08T06:59:56;43.38;;;19.63;;
40707;SDS011;26392;42.696;23.350;2023-03-08T07:02:22;36.08;;;14.13;;
40707;SDS011;26392;42.696;23.350;2023-03-08T07:04:47;37.33;;;18.05;;
40707;SDS011;26392;42.696;23.350;2023-03-08T07:07:12;29.73;;;14.35;;
40707;SDS011;26392;42.696;23.350;2023-03-08T07:09:38;13.80;;;6.88;;
40707;SDS011;26392;42.696;23.350;2023-03-08T07:12:04;16.48;;;6.80;;
40707;SDS011;26392;42.696;23.350;2023-03-08T07:14:29;20.75;;;7.30;;
40707;SDS011;26392;42.696;23.350;2023-03-08T07:16:55;22.10;;;11.60;;
40707;SDS011;26392;42.696;23.350;2023-03-08T07:19:20;13.38;;;6.45;;
40707;SDS011;26392;42.696;23.350;2023-03-08T07:21:46;15.38;;;6.45;;
40707;SDS011;26392;42.696;23.350;2023-03-08T07:24:11;14.48;;;6.85;;
40707;SDS011;26392;42.696;23.350;2023-03-08T07:26:36;17.70;;;7.68;;
40707;SDS011;26392;42.696;23.350;2023-03-08T07:29:02;20.38;;;6.97;;
40707;SDS011;26392;42.696;23.350;2023-03-08T07:31:27;12.25;;;6.82;;
40707;SDS011;26392;42.696;23.350;2023-03-08T07:33:54;17.48;;;7.60;;
40707;SDS011;26392;42.696;23.350;2023-03-08T07:36:20;13.65;;;6.55;;
40707;SDS011;26392;42.696;23.350;2023-03-08T07:38:45;16.30;;;7.80;;
40707;SDS011;26392;42.696;23.350;2023-03-08T07:41:11;14.23;;;6.95;;
40707;SDS011;26392;42.696;23.350;2023-03-08T07:43:37;13.73;;;6.85;;
40707;SDS011;26392;42.696;23.350;2023-03-08T07:46:02;28.15;;;8.95;;
40707;SDS011;26392;42.696;23.350;2023-03-08T07:48:29;14.20;;;6.55;;
40707;SDS011;26392;42.696;23.350;2023-03-08T07:51:02;16.02;;;6.32;;
40707;SDS011;26392;42.696;23.350;2023-03-08T07:53:31;14.80;;;6.32;;
40707;SDS011;26392;42.696;23.350;2023-03-08T07:55:57;10.20;;;5.90;;
40707;SDS011;26392;42.696;23.350;2023-03-08T07:58:23;16.38;;;6.72;;
40707;SDS011;26392;42.696;23.350;2023-03-08T08:00:49;15.57;;;7.25;;
40707;SDS011;26392;42.696;23.350;2023-03-08T08:03:15;14.43;;;7.20;;
40707;SDS011;26392;42.696;23.350;2023-03-08T08:05:40;14.18;;;6.10;;
40707;SDS011;26392;42.696;23.350;2023-03-08T08:08:05;13.98;;;5.82;;
40707;SDS011;26392;42.696;23.350;2023-03-08T08:10:31;13.35;;;6.22;;
40707;SDS011;26392;42.696;23.350;2023-03-08T08:12:56;12.85;;;6.53;;
40707;SDS011;26392;42.696;23.350;2023-03-08T08:15:22;20.90;;;5.60;;
40707;SDS011;26392;42.696;23.350;2023-03-08T08:17:49;14.10;;;6.15;;
40707;SDS011;26392;42.696;23.350;2023-03-08T08:20:14;16.95;;;7.07;;
40707;SDS011;26392;42.696;23.350;2023-03-08T08:22:40;13.15;;;6.18;;
40707;SDS011;26392;42.696;23.350;2023-03-08T08:25:06;18.38;;;6.43;;
40707;SDS011;26392;42.696;23.350;2023-03-08T08:27:32;14.57;;;6.53;;
40707;SDS011;26392;42.696;23.350;2023-03-08T08:29:58;17.65;;;7.40;;
40707;SDS011;26392;42.696;23.350;2023-03-08T08:32:23;19.63;;;7.00;;
40707;SDS011;26392;42.696;23.350;2023-03-08T08:34:50;16.08;;;7.53;;
40707;SDS011;26392;42.696;23.350;2023-03-08T08:37:15;14.88;;;6.78;;
40707;SDS011;26392;42.696;23.350;2023-03-08T08:39:41;14.55;;;7.10;;
40707;SDS011;26392;42.696;23.350;2023-03-08T08:42:06;18.40;;;7.55;;
40707;SDS011;26392;42.696;23.350;2023-03-08T08:44:32;12.70;;;6.65;;
40707;SDS011;26392;42.696;23.350;2023-03-08T08:46:57;11.55;;;6.65;;
40707;SDS011;26392;42.696;23.350;2023-03-08T08:49:23;17.23;;;8.27;;
40707;SDS011;26392;42.696;23.350;2023-03-08T08:51:48;18.80;;;6.95;;
40707;SDS011;26392;42.696;23.350;2023-03-08T08:54:14;16.65;;;6.90;;
40707;SDS011;26392;42.696;23.350;2023-03-08T08:56:40;15.40;;;6.80;;
40707;SDS011;26392;42.696;23.350;2023-03-08T08:59:08;14.15;;;7.85;;
40707;SDS011;26392;42.696;23.350;2023-03-08T09:01:35;25.00;;;7.90;;
40707;SDS011;26392;42.696;23.350;2023-03-08T09:04:03;17.20;;;7.10;;
40707;SDS011;26392;42.696;23.350;2023-03-08T09:06:29;17.30;;;7.40;;
40707;SDS011;26392;42.696;23.350;2023-03-08T09:08:56;17.88;;;7.10;;
40707;SDS011;26392;42.696;23.350;2023-03-08T09:11:23;21.65;;;7.60;;
40707;SDS011;26392;42.696;23.350;2023-03-08T09:13:49;22.08;;;7.63;;
40707;SDS011;26392;42.696;23.350;2023-03-08T09:16:20;12.15;;;7.15;;
40707;SDS011;26392;42.696;23.350;2023-03-08T09:18:47;14.73;;;6.78;;
40707;SDS011;26392;42.696;23.350;2023-03-08T09:21:13;15.00;;;6.72;;
40707;SDS011;26392;42.696;23.350;2023-03-08T09:23:38;16.42;;;6.60;;
40707;SDS011;26392;42.696;23.350;2023-03-08T09:26:04;10.98;;;6.78;;
40707;SDS011;26392;42.696;23.350;2023-03-08T09:28:30;13.50;;;6.97;;
40707;SDS011;26392;42.696;23.350;2023-03-08T09:30:56;15.52;;;6.60;;
40707;SDS011;26392;42.696;23.350;2023-03-08T09:33:22;17.73;;;6.68;;
40707;SDS011;26392;42.696;23.350;2023-03-08T09:35:54;17.55;;;7.30;;
40707;SDS011;26392;42.696;23.350;2023-03-08T09:38:20;16.98;;;7.53;;
40707;SDS011;26392;42.696;23.350;2023-03-08T09:43:59;18.45;;;8.10;;
40707;SDS011;26392;42.696;23.350;2023-03-08T09:46:37;18.98;;;6.53;;
40707;SDS011;26392;42.696;23.350;2023-03-08T09:49:08;17.58;;;6.97;;
40707;SDS011;26392;42.696;23.350;2023-03-08T09:51:41;16.20;;;7.03;;
40707;SDS011;26392;42.696;23.350;2023-03-08T09:54:12;13.20;;;6.55;;
40707;SDS011;26392;42.696;23.350;2023-03-08T09:56:45;10.32;;;6.22;;
40707;SDS011;26392;42.696;23.350;2023-03-08T10:04:31;12.65;;;5.82;;
40707;SDS011;26392;42.696;23.350;2023-03-08T10:09:31;11.80;;;6.30;;
40707;SDS011;26392;42.696;23.350;2023-03-08T10:12:25;10.32;;;5.75;;
40707;SDS011;26392;42.696;23.350;2023-03-08T10:15:13;16.65;;;6.18;;
40707;SDS011;26392;42.696;23.350;2023-03-08T10:22:42;11.63;;;6.65;;
40707;SDS011;26392;42.696;23.350;2023-03-08T10:25:17;13.18;;;6.10;;
40707;SDS011;26392;42.696;23.350;2023-03-08T10:27:48;16.55;;;6.30;;
40707;SDS011;26392;42.696;23.350;2023-03-08T10:30:17;13.32;;;5.72;;
40707;SDS011;26392;42.696;23.350;2023-03-08T10:32:45;19.67;;;6.32;;
40707;SDS011;26392;42.696;23.350;2023-03-08T10:35:13;14.93;;;5.72;;
40707;SDS011;26392;42.696;23.350;2023-03-08T10:37:39;15.35;;;6.00;;
40707;SDS011;26392;42.696;23.350;2023-03-08T10:40:06;9.02;;;5.72;;
40707;SDS011;26392;42.696;23.350;2023-03-08T10:42:41;14.32;;;6.55;;
40707;SDS011;26392;42.696;23.350;2023-03-08T10:47:39;15.82;;;7.40;;
40707;SDS011;26392;42.696;23.350;2023-03-08T10:50:10;21.58;;;7.03;;
40707;SDS011;26392;42.696;23.350;2023-03-08T10:52:37;21.30;;;8.25;;
40707;SDS011;26392;42.696;23.350;2023-03-08T10:55:03;13.95;;;6.50;;
40707;SDS011;26392;42.696;23.350;2023-03-08T10:57:34;15.23;;;6.35;;
40707;SDS011;26392;42.696;23.350;2023-03-08T11:00:01;13.05;;;6.40;;
40707;SDS011;26392;42.696;23.350;2023-03-08T11:02:37;15.10;;;6.40;;
40707;SDS011;26392;42.696;23.350;2023-03-08T11:05:15;16.23;;;5.75;;
40707;SDS011;26392;42.696;23.350;2023-03-08T11:07:48;14.77;;;5.53;;
40707;SDS011;26392;42.696;23.350;2023-03-08T11:10:16;11.87;;;5.63;;
40707;SDS011;26392;42.696;23.350;2023-03-08T11:12:43;17.73;;;6.90;;
40707;SDS011;26392;42.696;23.350;2023-03-08T11:15:13;9.02;;;4.43;;
40707;SDS011;26392;42.696;23.350;2023-03-08T11:17:52;12.00;;;4.78;;
40707;SDS011;26392;42.696;23.350;2023-03-08T11:20:27;10.23;;;3.63;;
40707;SDS011;26392;42.696;23.350;2023-03-08T11:23:14;5.82;;;3.53;;
40707;SDS011;26392;42.696;23.350;2023-03-08T11:26:17;8.63;;;3.30;;
40707;SDS011;26392;42.696;23.350;2023-03-08T11:31:40;7.10;;;3.03;;
40707;SDS011;26392;42.696;23.350;2023-03-08T11:37:45;6.90;;;2.85;;
40707;SDS011;26392;42.696;23.350;2023-03-08T11:51:26;5.85;;;2.47;;
40707;SDS011;26392;42.696;23.350;2023-03-08T11:54:04;3.97;;;2.08;;
40707;SDS011;26392;42.696;23.350;2023-03-08T11:56:53;8.27;;;2.35;;
40707;SDS011;26392;42.696;23.350;2023-03-08T11:59:38;5.13;;;2.05;;
40707;SDS011;26392;42.696;23.350;2023-03-08T12:04:37;6.63;;;3.22;;
40707;SDS011;26392;42.696;23.350;2023-03-08T12:07:09;4.57;;;2.47;;
40707;SDS011;26392;42.696;23.350;2023-03-08T12:09:50;4.82;;;1.75;;
40707;SDS011;26392;42.696;23.350;2023-03-08T12:12:34;4.95;;;1.20;;
40707;SDS011;26392;42.696;23.350;2023-03-08T12:18:12;5.45;;;1.60;;
40707;SDS011;26392;42.696;23.350;2023-03-08T12:20:40;5.97;;;1.10;;
40707;SDS011;26392;42.696;23.350;2023-03-08T12:25:59;3.35;;;1.85;;
40707;SDS011;26392;42.696;23.350;2023-03-08T12:28:33;5.47;;;1.80;;
40707;SDS011;26392;42.696;23.350;2023-03-08T12:31:20;1.85;;;1.70;;
40707;SDS011;26392;42.696;23.350;2023-03-08T12:33:49;4.10;;;1.58;;
40707;SDS011;26392;42.696;23.350;2023-03-08T12:36:18;3.15;;;1.55;;
40707;SDS011;26392;42.696;23.350;2023-03-08T12:38:46;3.28;;;1.30;;
40707;SDS011;26392;42.696;23.350;2023-03-08T12:41:29;3.30;;;1.63;;
40707;SDS011;26392;42.696;23.350;2023-03-08T12:46:51;3.15;;;1.58;;
40707;SDS011;26392;42.696;23.350;2023-03-08T12:49:33;2.28;;;1.50;;
40707;SDS011;26392;42.696;23.350;2023-03-08T12:54:42;3.58;;;1.50;;
40707;SDS011;26392;42.696;23.350;2023-03-08T12:57:20;7.90;;;1.55;;
40707;SDS011;26392;42.696;23.350;2023-03-08T12:59:53;1.27;;;1.10;;
40707;SDS011;26392;42.696;23.350;2023-03-08T13:02:30;3.92;;;1.88;;
40707;SDS011;26392;42.696;23.350;2023-03-08T13:05:14;3.90;;;1.67;;
40707;SDS011;26392;42.696;23.350;2023-03-08T13:10:33;4.22;;;1.30;;
40707;SDS011;26392;42.696;23.350;2023-03-08T13:13:11;3.08;;;1.58;;
40707;SDS011;26392;42.696;23.350;2023-03-08T13:15:45;6.57;;;1.67;;
40707;SDS011;26392;42.696;23.350;2023-03-08T13:18:15;2.78;;;1.40;;
40707;SDS011;26392;42.696;23.350;2023-03-08T13:23:37;3.88;;;1.45;;
40707;SDS011;26392;42.696;23.350;2023-03-08T13:28:47;3.42;;;1.30;;
40707;SDS011;26392;42.696;23.350;2023-03-08T13:31:16;2.75;;;1.40;;
40707;SDS011;26392;42.696;23.350;2023-03-08T13:33:48;4.57;;;1.27;;
40707;SDS011;26392;42.696;23.350;2023-03-08T13:41:29;7.38;;;1.77;;
40707;SDS011;26392;42.696;23.350;2023-03-08T13:44:00;2.25;;;1.58;;
40707;SDS011;26392;42.696;23.350;2023-03-08T13:46:26;1.77;;;1.38;;
40707;SDS011;26392;42.696;23.350;2023-03-08T13:48:52;5.60;;;1.80;;
40707;SDS011;26392;42.696;23.350;2023-03-08T13:51:18;2.53;;;1.52;;
40707;SDS011;26392;42.696;23.350;2023-03-08T13:53:44;2.10;;;1.60;;
40707;SDS011;26392;42.696;23.350;2023-03-08T13:56:15;3.47;;;1.50;;
40707;SDS011;26392;42.696;23.350;2023-03-08T13:58:47;2.90;;;1.40;;
40707;SDS011;26392;42.696;23.350;2023-03-08T14:01:20;3.35;;;1.35;;
40707;SDS011;26392;42.696;23.350;2023-03-08T14:03:48;5.22;;;1.50;;
40707;SDS011;26392;42.696;23.350;2023-03-08T14:08:44;2.03;;;1.08;;
40707;SDS011;26392;42.696;23.350;2023-03-08T14:11:18;4.00;;;1.58;;
40707;SDS011;26392;42.696;23.350;2023-03-08T14:13:48;3.25;;;1.52;;
40707;SDS011;26392;42.696;23.350;2023-03-08T14:16:29;2.85;;;1.60;;
40707;SDS011;26392;42.696;23.350;2023-03-08T14:19:10;4.00;;;1.70;;
40707;SDS011;26392;42.696;23.350;2023-03-08T14:21:36;2.83;;;1.40;;
40707;SDS011;26392;42.696;23.350;2023-03-08T14:24:02;2.35;;;1.52;;
40707;SDS011;26392;42.696;23.350;2023-03-08T14:31:36;3.25;;;1.90;;
40707;SDS011;26392;42.696;23.350;2023-03-08T14:34:03;5.57;;;1.98;;
40707;SDS011;26392;42.696;23.350;2023-03-08T14:36:45;3.72;;;1.90;;
40707;SDS011;26392;42.696;23.350;2023-03-08T14:39:17;3.65;;;1.60;;
40707;SDS011;26392;42.696;23.350;2023-03-08T14:41:43;3.15;;;1.95;;
40707;SDS011;26392;42.696;23.350;2023-03-08T14:44:13;4.95;;;1.88;;
40707;SDS011;26392;42.696;23.350;2023-03-08T14:46:45;3.70;;;1.70;;
40707;SDS011;26392;42.696;23.350;2023-03-08T14:49:21;3.85;;;1.98;;
40707;SDS011;26392;42.696;23.350;2023-03-08T14:51:47;6.90;;;1.92;;
40707;SDS011;26392;42.696;23.350;2023-03-08T14:56:47;2.92;;;1.60;;
40707;SDS011;26392;42.696;23.350;2023-03-08T14:59:13;6.55;;;2.35;;
40707;SDS011;26392;42.696;23.350;2023-03-08T15:01:39;6.25;;;2.08;;
40707;SDS011;26392;42.696;23.350;2023-03-08T15:04:15;4.30;;;1.70;;
40707;SDS011;26392;42.696;23.350;2023-03-08T15:06:42;7.28;;;1.80;;
40707;SDS011;26392;42.696;23.350;2023-03-08T15:09:08;5.72;;;1.75;;
40707;SDS011;26392;42.696;23.350;2023-03-08T15:11:36;8.23;;;2.28;;
40707;SDS011;26392;42.696;23.350;2023-03-08T15:14:02;3.75;;;2.05;;
40707;SDS011;26392;42.696;23.350;2023-03-08T15:16:27;3.25;;;1.52;;
40707;SDS011;26392;42.696;23.350;2023-03-08T15:18:53;3.90;;;1.63;;
40707;SDS011;26392;42.696;23.350;2023-03-08T15:21:22;3.20;;;1.77;;
40707;SDS011;26392;42.696;23.350;2023-03-08T15:23:49;2.58;;;1.80;;
40707;SDS011;26392;42.696;23.350;2023-03-08T15:26:17;8.52;;;2.33;;
40707;SDS011;26392;42.696;23.350;2023-03-08T15:28:48;4.72;;;1.50;;
40707;SDS011;26392;42.696;23.350;2023-03-08T15:31:13;4.75;;;1.92;;
40707;SDS011;26392;42.696;23.350;2023-03-08T15:33:39;2.05;;;1.70;;
40707;SDS011;26392;42.696;23.350;2023-03-08T15:36:04;3.13;;;1.75;;
40707;SDS011;26392;42.696;23.350;2023-03-08T15:38:30;4.68;;;2.42;;
40707;SDS011;26392;42.696;23.350;2023-03-08T15:40:55;4.05;;;2.25;;
40707;SDS011;26392;42.696;23.350;2023-03-08T15:43:20;2.63;;;1.80;;
40707;SDS011;26392;42.696;23.350;2023-03-08T15:45:46;3.28;;;2.42;;
40707;SDS011;26392;42.696;23.350;2023-03-08T15:48:13;9.48;;;2.10;;
40707;SDS011;26392;42.696;23.350;2023-03-08T15:50:39;15.10;;;2.20;;